Briefing drone pour Varennes-vauzelles

Rechercher une autre localisation

Conditions de vol :


Nous sommes le : Dimanche 23 janvier 2022
Il est 05:32 UTC (06:32 LT)

Lever de soleil : 06:56 UTC (07:56 LT)
Coucher de soleil : 17:02 UTC (18:02 LT)

Météo

L'essentiel des conditions de vol

VIGILANCE MÉTÉO FRANCE - Nièvre (58)
Pas de vigilances particulieres
CARTE TEMSI
CARTES DES FRONTS
METAR de LFQG
LFQG 221800Z AUTO 03008KT 360V070 9999 OVC014 03/01 Q1036

Date d'émission: 22/01/2022
Heure d'émission: 18:00 UTC
Vent: 030° (variable du 360° au 070°) pour 8 KT (15 km/h)
Visibilité horizontale: > 10 km
Plafond :
- Couvert à 1400ft (427m)
Température: 3 °C
Point de rosée: 1 °C
Humidité: 87%
Pression (QNH): 1036 hPa
Prévision 24h pour Nevers (2 km)
Vent : 98° pour 1 KT (5 km/h)
Temperature Maxi: -1 °C
Temperature Min: -1 °C
Humidité : 95%
Condition : Ciel dégagé



Warning: count(): Parameter must be an array or an object that implements Countable in /homepages/6/d509196549/htdocs/droneoxygene/briefing.php on line 743
WEBCAM POUR VARENNES-VAUZELLES

Réglementation

Voler en sécurité

CARTES AERONAUTIQUE 1/500.000
CARTES VAC (LFQG)
SUP AIP




Chargement des AIP...
NOTAM (VARENNES-VAUZELLES + Terrain à proximité / FIR )




Chargement des NOTAMS...
CONTACT PREFECTURE 58


Avertissement : Les données mises à disposition sont indicatives. Oxygène Drone ne pourra être tenu responsable de dégâts causés aux biens et aux personnes.